Grass Lake, Michigan
Current Conditions -  °F | °C
As of 11:56 PM on Sunday 19 Oct 2014 (Local Time) from KJXN Reporting Station
Few Clouds Few Clouds  
Wind Chill: 44°   Ceiling: Unl
Heat Index: 48°   Visibility: 10mi
Dew Point: 37°   Wind: 8mph
Humidity: 66%   Direction: 230°SW
Pressure: 29.96"   Gusts: NA
Location:  42.25°N, 84.21°W
Report Text: KJXN 200356Z 23007KT 10SM FEW100 09/03 A2996 RMK AO2 SLP149 T00890028
Loading
Personal Weather Stations






























Interactive Weather Map
Tropical Storm Tracking
New forecast layout! Learn more

10-Day Weather Forecast

Advertisements
Track Severe Weather on mobile